createdAt,value
2023-04-16T00:02:04.587Z,14.40
2023-04-16T00:04:31.666Z,15.27
2023-04-16T00:06:58.844Z,15.20
2023-04-16T00:09:26.258Z,15.23
2023-04-16T00:11:53.455Z,15.63
2023-04-16T00:14:20.395Z,15.33
2023-04-16T00:16:47.615Z,15.60
2023-04-16T00:19:14.515Z,15.07
2023-04-16T00:21:41.797Z,18.10
2023-04-16T00:24:08.809Z,17.07
2023-04-16T00:26:35.941Z,16.40
2023-04-16T00:29:02.842Z,16.43
2023-04-16T00:31:31.902Z,17.13
2023-04-16T00:33:59.317Z,16.67
2023-04-16T00:36:27.530Z,14.67
2023-04-16T00:38:56.116Z,14.10
2023-04-16T00:41:23.267Z,14.07
2023-04-16T00:43:50.901Z,14.33
2023-04-16T00:46:19.599Z,15.40
2023-04-16T00:48:47.226Z,14.02
2023-04-16T00:51:14.305Z,14.23
2023-04-16T00:53:41.928Z,15.30
2023-04-16T00:56:09.886Z,15.60
2023-04-16T00:58:37.109Z,15.27
2023-04-16T01:01:04.010Z,13.87
2023-04-16T01:03:46.076Z,14.07
2023-04-16T01:06:13.696Z,13.87
2023-04-16T01:08:41.092Z,13.97
2023-04-16T01:11:08.247Z,13.80
2023-04-16T01:13:39.370Z,14.57
2023-04-16T01:16:10.814Z,14.83
2023-04-16T01:18:38.878Z,14.70
2023-04-16T01:21:06.753Z,16.83
2023-04-16T01:23:34.102Z,16.80
2023-04-16T01:26:01.136Z,17.33
2023-04-16T01:28:28.382Z,15.23
2023-04-16T01:30:55.199Z,18.07
2023-04-16T01:33:22.303Z,16.90
2023-04-16T01:35:49.145Z,18.00
2023-04-16T01:38:16.648Z,18.60
2023-04-16T01:40:43.590Z,16.77
2023-04-16T01:43:10.744Z,15.97
2023-04-16T01:45:37.615Z,14.30
2023-04-16T01:48:05.024Z,14.20
2023-04-16T01:50:32.012Z,14.13
2023-04-16T01:52:59.196Z,16.67
2023-04-16T01:55:27.002Z,15.10
2023-04-16T01:57:54.142Z,15.77
2023-04-16T02:00:21.152Z,19.50
2023-04-16T02:02:49.582Z,17.83
2023-04-16T02:05:16.779Z,16.73
2023-04-16T02:07:44.004Z,16.57
2023-04-16T02:10:10.981Z,17.17
2023-04-16T02:12:38.153Z,19.67
2023-04-16T02:15:05.352Z,19.43
2023-04-16T02:17:32.591Z,20.43
2023-04-16T02:19:59.462Z,19.00
2023-04-16T02:22:26.642Z,18.40
2023-04-16T02:24:53.637Z,16.83
2023-04-16T02:27:20.837Z,15.03
2023-04-16T02:29:47.688Z,15.43
2023-04-16T02:32:14.889Z,16.70
2023-04-16T02:34:43.029Z,17.13
2023-04-16T02:37:09.920Z,15.37
2023-04-16T02:39:37.119Z,15.30
2023-04-16T02:42:03.988Z,14.80
2023-04-16T02:44:31.213Z,13.97
2023-04-16T02:46:58.067Z,14.03
2023-04-16T02:49:25.642Z,14.80
2023-04-16T02:51:52.423Z,13.47
2023-04-16T02:54:19.484Z,13.23
2023-04-16T02:56:46.515Z,13.67
2023-04-16T02:59:13.627Z,12.93
2023-04-16T03:01:40.533Z,14.53
2023-04-16T03:04:07.857Z,15.70
2023-04-16T03:06:34.907Z,16.67
2023-04-16T03:09:02.011Z,19.33
2023-04-16T03:11:28.899Z,16.23
2023-04-16T03:13:56.712Z,16.37
2023-04-16T03:16:23.784Z,14.63
2023-04-16T03:18:51.057Z,15.53
2023-04-16T03:21:17.952Z,14.33
2023-04-16T03:23:45.116Z,13.80
2023-04-16T03:26:11.978Z,13.97
2023-04-16T03:28:39.107Z,12.47
2023-04-16T03:31:06.127Z,12.80
2023-04-16T03:33:33.315Z,12.43
2023-04-16T03:36:00.176Z,13.23
2023-04-16T03:38:27.392Z,12.77
2023-04-16T03:40:54.332Z,13.23
2023-04-16T03:43:21.647Z,14.03
2023-04-16T03:45:48.649Z,16.73
2023-04-16T03:48:16.059Z,16.90
2023-04-16T03:50:47.952Z,18.13
2023-04-16T03:53:15.556Z,18.27
2023-04-16T03:55:42.941Z,18.30
2023-04-16T03:58:10.275Z,20.03
2023-04-16T04:00:37.173Z,17.87
2023-04-16T04:03:04.533Z,19.10
2023-04-16T04:05:31.554Z,19.37
2023-04-16T04:07:58.711Z,18.03
2023-04-16T04:10:25.574Z,16.23
2023-04-16T04:12:52.791Z,15.70
2023-04-16T04:15:19.707Z,15.27
2023-04-16T04:17:46.913Z,11.83
2023-04-16T04:20:13.831Z,11.23
2023-04-16T04:22:41.061Z,9.30
2023-04-16T04:25:10.725Z,8.43
2023-04-16T04:27:37.953Z,6.70
2023-04-16T04:30:05.806Z,6.40
2023-04-16T04:32:32.918Z,5.53
2023-04-16T04:35:02.750Z,5.43
2023-04-16T04:37:30.057Z,5.23
2023-04-16T04:39:56.878Z,4.60
2023-04-16T04:42:24.723Z,3.92
2023-04-16T04:44:51.666Z,4.28
2023-04-16T04:47:18.858Z,3.65
2023-04-16T04:49:45.984Z,3.80
2023-04-16T04:52:13.914Z,4.20
2023-04-16T04:54:41.870Z,3.90
2023-04-16T04:57:09.034Z,4.63
2023-04-16T04:59:35.908Z,4.53
2023-04-16T05:02:03.619Z,4.82
2023-04-16T05:04:30.913Z,3.40
2023-04-16T05:06:58.126Z,2.90
2023-04-16T05:09:25.050Z,4.35
2023-04-16T05:11:52.331Z,2.30
2023-04-16T05:14:19.169Z,2.50
2023-04-16T05:16:46.412Z,2.33
2023-04-16T05:19:13.309Z,2.30
2023-04-16T05:21:40.415Z,2.25
2023-04-16T05:24:07.309Z,2.00
2023-04-16T05:26:34.400Z,2.25
2023-04-16T05:29:01.329Z,1.77
2023-04-16T05:31:28.601Z,2.03
2023-04-16T05:33:55.474Z,1.77
2023-04-16T05:36:22.890Z,1.52
2023-04-16T05:38:49.800Z,1.80
2023-04-16T05:41:16.940Z,1.80
2023-04-16T05:43:43.795Z,2.17
2023-04-16T05:46:11.297Z,1.48
2023-04-16T05:48:38.192Z,1.98
2023-04-16T05:51:05.570Z,1.73
2023-04-16T05:53:32.479Z,1.60
2023-04-16T05:55:59.670Z,1.75
2023-04-16T05:58:26.580Z,1.65
2023-04-16T06:00:54.419Z,1.65
2023-04-16T06:03:21.297Z,1.92
2023-04-16T06:05:48.614Z,1.88
2023-04-16T06:08:15.576Z,1.88
2023-04-16T06:10:42.819Z,1.70
2023-04-16T06:13:09.695Z,1.88
2023-04-16T06:15:36.938Z,1.60
2023-04-16T06:18:03.913Z,1.80
2023-04-16T06:20:31.597Z,3.92
2023-04-16T06:22:58.476Z,9.27
2023-04-16T06:25:25.801Z,7.45
2023-04-16T06:27:52.706Z,2.97
2023-04-16T06:30:20.182Z,5.07
2023-04-16T06:32:48.131Z,3.17
2023-04-16T06:35:15.410Z,3.72
2023-04-16T06:37:42.273Z,2.92
2023-04-16T06:40:09.928Z,3.05
2023-04-16T06:42:36.851Z,2.72
2023-04-16T06:45:04.370Z,2.85
2023-04-16T06:47:31.250Z,3.75
2023-04-16T06:49:58.373Z,2.70
2023-04-16T06:52:25.609Z,3.70
2023-04-16T06:54:52.710Z,3.53
2023-04-16T06:57:19.533Z,2.97
2023-04-16T06:59:46.694Z,3.00
2023-04-16T07:02:13.622Z,3.10
2023-04-16T07:04:40.811Z,3.63
2023-04-16T07:07:09.048Z,3.70
2023-04-16T07:09:36.716Z,3.50
2023-04-16T07:12:03.721Z,9.80
2023-04-16T07:14:30.920Z,3.80
2023-04-16T07:16:57.950Z,4.63
2023-04-16T07:19:25.878Z,5.82
2023-04-16T07:21:52.758Z,6.55
2023-04-16T07:24:19.896Z,6.30
2023-04-16T07:26:46.773Z,5.10
2023-04-16T07:29:13.921Z,4.72
2023-04-16T07:31:40.925Z,5.43
2023-04-16T07:34:08.188Z,5.75
2023-04-16T07:36:35.007Z,6.60
2023-04-16T07:39:02.222Z,7.45
2023-04-16T07:41:29.728Z,5.15
2023-04-16T07:43:57.057Z,5.13
2023-04-16T07:46:25.014Z,4.75
2023-04-16T07:48:54.092Z,4.65
2023-04-16T07:51:20.943Z,4.40
2023-04-16T07:53:48.120Z,4.13
2023-04-16T07:56:14.990Z,6.40
2023-04-16T07:58:42.192Z,4.30
2023-04-16T08:01:09.104Z,4.50
2023-04-16T08:03:36.673Z,4.70
2023-04-16T08:06:03.974Z,4.07
2023-04-16T08:08:31.741Z,4.35
2023-04-16T08:10:59.156Z,4.53
2023-04-16T08:13:26.379Z,4.13
2023-04-16T08:15:53.238Z,4.70
2023-04-16T08:18:20.469Z,4.30
2023-04-16T08:20:47.421Z,4.72
2023-04-16T08:23:14.851Z,3.95
2023-04-16T08:25:41.703Z,4.65
2023-04-16T08:28:08.823Z,4.45
2023-04-16T08:30:35.912Z,4.53
2023-04-16T08:33:03.144Z,4.47
2023-04-16T08:35:30.105Z,3.80
2023-04-16T08:37:59.188Z,5.00
2023-04-16T08:40:29.027Z,4.28
2023-04-16T08:43:00.109Z,4.53
2023-04-16T08:45:27.752Z,3.65
2023-04-16T08:47:55.003Z,4.07
2023-04-16T08:50:26.227Z,3.90
2023-04-16T08:53:00.854Z,3.72
2023-04-16T08:55:39.727Z,3.45
2023-04-16T09:00:42.029Z,5.63
2023-04-16T09:03:13.091Z,2.95
2023-04-16T09:05:40.641Z,8.40
2023-04-16T09:08:07.894Z,3.10
2023-04-16T09:10:35.398Z,2.47
2023-04-16T09:13:02.606Z,3.13
2023-04-16T09:15:29.766Z,3.30
2023-04-16T09:17:57.734Z,3.22
2023-04-16T09:20:24.869Z,3.17
2023-04-16T09:22:52.093Z,2.28
2023-04-16T09:25:21.023Z,2.50
2023-04-16T09:27:50.946Z,2.58
2023-04-16T09:30:23.678Z,2.53
2023-04-16T09:32:52.226Z,2.97
2023-04-16T09:35:20.029Z,2.90
2023-04-16T09:37:57.632Z,3.33
2023-04-16T09:40:27.098Z,3.05
2023-04-16T09:42:58.535Z,3.30
2023-04-16T09:45:25.403Z,2.70
2023-04-16T09:47:52.578Z,3.00
2023-04-16T09:50:20.718Z,2.83
2023-04-16T09:52:50.766Z,4.25
2023-04-16T09:55:23.176Z,3.13
2023-04-16T09:57:59.134Z,3.13
2023-04-16T10:00:26.218Z,3.20
2023-04-16T10:03:04.811Z,3.08
2023-04-16T10:05:31.727Z,3.10
2023-04-16T10:08:02.255Z,3.97
2023-04-16T10:10:29.784Z,2.83
2023-04-16T10:12:58.073Z,3.10
2023-04-16T10:15:25.825Z,3.57
2023-04-16T10:17:54.395Z,3.73
2023-04-16T10:20:22.823Z,3.97
2023-04-16T10:22:50.426Z,3.80
2023-04-16T10:25:18.004Z,5.07
2023-04-16T10:27:45.941Z,4.30
2023-04-16T10:30:14.096Z,4.50
2023-04-16T10:32:42.428Z,4.18
2023-04-16T10:35:09.591Z,4.68
2023-04-16T10:37:37.698Z,4.82
2023-04-16T10:40:23.799Z,5.60
2023-04-16T10:43:01.701Z,4.05
2023-04-16T10:45:38.240Z,5.43
2023-04-16T10:48:08.674Z,5.18
2023-04-16T10:50:37.289Z,5.25
2023-04-16T10:53:24.190Z,5.30
2023-04-16T10:56:04.460Z,5.38
2023-04-16T10:58:34.878Z,4.55
2023-04-16T11:01:13.530Z,6.13
2023-04-16T11:03:44.832Z,5.40
2023-04-16T11:06:24.762Z,5.45
2023-04-16T11:09:09.004Z,4.45
2023-04-16T11:11:39.671Z,4.88
2023-04-16T11:14:09.473Z,4.75
2023-04-16T11:16:40.843Z,3.90
2023-04-16T11:19:08.085Z,4.85
2023-04-16T11:21:35.088Z,4.68
2023-04-16T11:24:02.234Z,4.80
2023-04-16T11:26:30.970Z,4.78
2023-04-16T11:31:27.482Z,5.03
2023-04-16T11:33:56.625Z,4.65
2023-04-16T11:36:26.134Z,4.05
2023-04-16T11:39:02.338Z,4.20
2023-04-16T11:41:29.209Z,4.65
2023-04-16T11:43:56.463Z,4.40
2023-04-16T11:46:27.752Z,4.80
2023-04-16T11:48:56.254Z,4.07
2023-04-16T11:51:23.753Z,4.22
2023-04-16T11:53:56.307Z,3.53
2023-04-16T11:56:31.113Z,3.90
2023-04-16T11:59:17.545Z,4.80
2023-04-16T12:01:49.428Z,4.15
2023-04-16T12:04:19.680Z,4.10
2023-04-16T12:07:09.639Z,3.58
2023-04-16T12:09:41.463Z,4.72
2023-04-16T12:12:32.077Z,5.05
2023-04-16T12:15:03.188Z,4.60
2023-04-16T12:17:35.328Z,4.32
2023-04-16T12:20:15.011Z,3.67
2023-04-16T12:25:15.714Z,3.90
2023-04-16T12:27:56.081Z,4.00
2023-04-16T12:30:24.577Z,3.83
2023-04-16T12:32:53.715Z,3.20
2023-04-16T12:35:31.672Z,3.55
2023-04-16T12:37:59.184Z,3.80
2023-04-16T12:40:26.990Z,3.85
2023-04-16T12:42:53.894Z,3.83
2023-04-16T12:45:23.021Z,4.60
2023-04-16T12:47:50.679Z,4.07
2023-04-16T12:50:18.425Z,3.50
2023-04-16T12:52:45.596Z,4.10
2023-04-16T12:55:14.210Z,4.32
2023-04-16T12:57:41.402Z,4.40
2023-04-16T13:00:10.700Z,4.03
2023-04-16T13:05:05.676Z,3.78
2023-04-16T13:07:34.077Z,4.20
2023-04-16T13:10:01.240Z,3.85
2023-04-16T13:12:29.711Z,3.42
2023-04-16T13:14:57.718Z,4.15
2023-04-16T13:17:24.752Z,4.20
2023-04-16T13:19:51.923Z,4.13
2023-04-16T13:22:18.804Z,3.97
2023-04-16T13:24:46.366Z,3.22
2023-04-16T13:27:15.908Z,3.35
2023-04-16T13:29:43.124Z,3.50
2023-04-16T13:32:10.178Z,3.63
2023-04-16T13:34:37.325Z,3.08
2023-04-16T13:37:04.201Z,3.15
2023-04-16T13:39:31.545Z,3.25
2023-04-16T13:41:58.548Z,3.55
2023-04-16T13:44:25.797Z,3.90
2023-04-16T13:46:53.107Z,4.15
2023-04-16T13:49:20.319Z,5.00
2023-04-16T13:51:47.129Z,3.25
2023-04-16T13:54:14.398Z,3.38
2023-04-16T13:56:41.625Z,4.00
2023-04-16T13:59:08.968Z,4.88
2023-04-16T14:01:35.985Z,4.57
2023-04-16T14:04:06.784Z,3.90
2023-04-16T14:06:36.991Z,4.88
2023-04-16T14:09:04.545Z,4.70
2023-04-16T14:11:31.759Z,4.80
2023-04-16T14:13:59.010Z,4.53
2023-04-16T14:16:27.450Z,4.32
2023-04-16T14:18:54.736Z,4.80
2023-04-16T14:21:21.575Z,5.57
2023-04-16T14:23:48.712Z,6.30
2023-04-16T14:26:15.653Z,5.07
2023-04-16T14:28:42.926Z,6.03
2023-04-16T14:31:09.863Z,5.30
2023-04-16T14:33:37.020Z,4.75
2023-04-16T14:36:04.293Z,7.05
2023-04-16T14:38:32.104Z,7.47
2023-04-16T14:41:00.475Z,7.32
2023-04-16T14:43:28.231Z,6.07
2023-04-16T14:45:55.211Z,5.50
2023-04-16T14:48:22.449Z,6.65
2023-04-16T14:50:49.362Z,6.00
2023-04-16T14:53:16.857Z,6.20
2023-04-16T14:55:44.137Z,6.63
2023-04-16T14:58:11.334Z,6.38
2023-04-16T15:00:38.367Z,6.60
2023-04-16T15:03:05.952Z,6.55
2023-04-16T15:05:33.120Z,6.15
2023-04-16T15:08:00.803Z,6.40
2023-04-16T15:10:28.198Z,6.43
2023-04-16T15:12:55.454Z,6.20
2023-04-16T15:15:22.544Z,6.93
2023-04-16T15:17:51.116Z,6.47
2023-04-16T15:20:18.303Z,6.43
2023-04-16T15:22:45.541Z,6.00
2023-04-16T15:25:12.679Z,6.40
2023-04-16T15:27:39.848Z,6.63
2023-04-16T15:30:07.462Z,6.88
2023-04-16T15:32:34.648Z,7.07
2023-04-16T15:35:03.389Z,7.43
2023-04-16T15:37:31.377Z,6.03
2023-04-16T15:39:58.307Z,7.10
2023-04-16T15:42:26.032Z,7.45
2023-04-16T15:44:52.907Z,7.32
2023-04-16T15:47:20.122Z,7.47
2023-04-16T15:49:47.012Z,7.32
2023-04-16T15:52:14.668Z,7.38
2023-04-16T15:54:42.162Z,6.60
2023-04-16T15:57:09.289Z,6.20
2023-04-16T15:59:36.313Z,5.30
2023-04-16T16:02:03.540Z,5.88
2023-04-16T16:04:30.566Z,7.18
2023-04-16T16:06:57.821Z,5.32
2023-04-16T16:09:28.073Z,4.72
2023-04-16T16:11:55.905Z,5.55
2023-04-16T16:14:22.846Z,5.10
2023-04-16T16:16:50.052Z,6.30
2023-04-16T16:19:17.033Z,5.25
2023-04-16T16:21:44.192Z,4.90
2023-04-16T16:24:11.138Z,5.30
2023-04-16T16:26:38.263Z,5.53
2023-04-16T16:29:05.188Z,5.07
2023-04-16T16:31:32.396Z,5.13
2023-04-16T16:33:59.394Z,6.40
2023-04-16T16:36:26.637Z,6.78
2023-04-16T16:38:53.580Z,6.70
2023-04-16T16:41:21.048Z,5.93
2023-04-16T16:43:47.951Z,6.13
2023-04-16T16:46:15.186Z,5.70
2023-04-16T16:48:42.048Z,5.50
2023-04-16T16:51:11.123Z,5.72
2023-04-16T16:53:37.985Z,6.45
2023-04-16T16:56:05.413Z,7.95
2023-04-16T16:58:32.273Z,7.97
2023-04-16T17:00:59.554Z,6.75
2023-04-16T17:03:26.637Z,5.57
2023-04-16T17:05:53.886Z,5.15
2023-04-16T17:08:20.795Z,4.65
2023-04-16T17:10:48.136Z,9.38
2023-04-16T17:13:19.714Z,6.75
2023-04-16T17:15:47.396Z,6.78
2023-04-16T17:18:14.205Z,7.72
2023-04-16T17:20:41.436Z,8.57
2023-04-16T17:23:08.337Z,11.73
2023-04-16T17:25:36.621Z,13.10
2023-04-16T17:28:03.853Z,16.15
2023-04-16T17:30:31.714Z,17.15
2023-04-16T17:32:58.784Z,15.38
2023-04-16T17:35:26.237Z,12.18
2023-04-16T17:37:53.080Z,13.18
2023-04-16T17:40:20.497Z,14.63
2023-04-16T17:42:48.939Z,13.63
2023-04-16T17:45:16.429Z,15.27
2023-04-16T17:47:44.511Z,19.42
2023-04-16T17:50:13.101Z,17.90
2023-04-16T17:52:40.016Z,17.13
2023-04-16T17:55:07.807Z,20.92
2023-04-16T17:57:34.701Z,33.03
2023-04-16T18:00:01.749Z,47.22
2023-04-16T18:02:29.116Z,58.30
2023-04-16T18:04:56.611Z,31.10
2023-04-16T18:07:23.922Z,24.52
2023-04-16T18:09:50.748Z,28.23
2023-04-16T18:12:17.828Z,22.92
2023-04-16T18:14:44.895Z,28.20
2023-04-16T18:17:13.112Z,26.38
2023-04-16T18:19:41.099Z,25.17
2023-04-16T18:22:08.254Z,21.48
2023-04-16T18:24:36.522Z,19.30
2023-04-16T18:27:04.002Z,20.42
2023-04-16T18:29:33.925Z,19.00
2023-04-16T18:32:04.292Z,18.52
2023-04-16T18:34:32.031Z,19.63
2023-04-16T18:36:59.262Z,20.13
2023-04-16T18:39:26.153Z,19.23
2023-04-16T18:41:53.251Z,18.00
2023-04-16T18:44:20.436Z,19.20
2023-04-16T18:46:48.574Z,25.77
2023-04-16T18:49:15.751Z,22.58
2023-04-16T18:51:42.930Z,24.35
2023-04-16T18:54:09.807Z,25.90
2023-04-16T18:56:37.025Z,24.67
2023-04-16T18:59:04.136Z,21.63
2023-04-16T19:01:31.608Z,20.05
2023-04-16T19:03:58.589Z,21.67
2023-04-16T19:06:27.132Z,21.38
2023-04-16T19:08:53.972Z,20.23
2023-04-16T19:11:21.339Z,22.25
2023-04-16T19:13:48.179Z,21.35
2023-04-16T19:16:15.840Z,20.63
2023-04-16T19:18:42.867Z,20.42
2023-04-16T19:21:11.008Z,21.08
2023-04-16T19:23:38.080Z,24.52
2023-04-16T19:26:05.496Z,27.52
2023-04-16T19:28:32.351Z,29.17
2023-04-16T19:30:59.504Z,26.23
2023-04-16T19:33:26.350Z,24.30
2023-04-16T19:35:53.496Z,23.08
2023-04-16T19:38:20.298Z,23.67
2023-04-16T19:40:48.971Z,23.92
2023-04-16T19:43:15.981Z,21.60
2023-04-16T19:45:47.417Z,22.30
2023-04-16T19:48:14.950Z,21.02
2023-04-16T19:50:42.826Z,21.80
2023-04-16T19:53:10.623Z,23.42
2023-04-16T19:55:41.499Z,21.90
2023-04-16T19:58:09.506Z,21.75
2023-04-16T20:00:38.780Z,20.17
2023-04-16T20:03:06.457Z,22.20
2023-04-16T20:05:34.011Z,20.52
2023-04-16T20:08:00.914Z,18.73
2023-04-16T20:10:28.151Z,20.20
2023-04-16T20:12:55.009Z,20.27
2023-04-16T20:15:22.217Z,19.30
2023-04-16T20:17:49.190Z,18.85
2023-04-16T20:20:16.626Z,19.33
2023-04-16T20:22:43.914Z,19.50
2023-04-16T20:25:11.478Z,19.00
2023-04-16T20:27:38.517Z,19.33
2023-04-16T20:30:06.482Z,19.52
2023-04-16T20:32:33.563Z,19.10
2023-04-16T20:35:02.039Z,19.30
2023-04-16T20:37:29.268Z,18.10
2023-04-16T20:39:56.493Z,19.27
2023-04-16T20:42:26.256Z,18.20
2023-04-16T20:44:56.733Z,16.75
2023-04-16T20:47:24.042Z,19.02
2023-04-16T20:49:53.015Z,20.63
2023-04-16T20:52:20.239Z,27.90
2023-04-16T20:54:47.978Z,23.00
2023-04-16T20:57:14.992Z,22.95
2023-04-16T20:59:42.183Z,28.63
2023-04-16T21:02:09.120Z,30.92
2023-04-16T21:04:36.258Z,28.95
2023-04-16T21:07:04.408Z,34.55
2023-04-16T21:09:31.715Z,33.65
2023-04-16T21:11:58.893Z,33.25
2023-04-16T21:14:25.710Z,25.00
2023-04-16T21:16:52.928Z,23.88
2023-04-16T21:19:20.074Z,26.20
2023-04-16T21:21:47.296Z,24.88
2023-04-16T21:24:14.288Z,22.27
2023-04-16T21:26:41.436Z,26.20
2023-04-16T21:29:08.344Z,25.77
2023-04-16T21:31:35.697Z,24.30
2023-04-16T21:34:02.735Z,24.50
2023-04-16T21:36:32.088Z,26.83
2023-04-16T21:38:59.031Z,26.27
2023-04-16T21:41:26.552Z,26.08
2023-04-16T21:43:53.518Z,25.45
2023-04-16T21:46:21.022Z,26.90
2023-04-16T21:48:48.627Z,27.10
2023-04-16T21:51:15.875Z,27.20
2023-04-16T21:53:42.714Z,29.50
2023-04-16T21:56:09.862Z,28.35
2023-04-16T21:58:36.761Z,27.48
2023-04-16T22:01:03.989Z,26.70
2023-04-16T22:03:31.254Z,28.33
2023-04-16T22:06:02.349Z,25.80
2023-04-16T22:08:30.232Z,32.10
2023-04-16T22:10:59.214Z,25.63
2023-04-16T22:13:26.626Z,25.33
2023-04-16T22:15:55.528Z,27.23
2023-04-16T22:18:25.530Z,24.98
2023-04-16T22:20:56.150Z,29.00
2023-04-16T22:23:23.755Z,22.90
2023-04-16T22:25:53.333Z,26.45
2023-04-16T22:30:47.252Z,25.38
2023-04-16T22:33:14.188Z,24.23
2023-04-16T22:35:41.390Z,24.08
2023-04-16T22:38:08.222Z,23.23
2023-04-16T22:40:35.419Z,23.77
2023-04-16T22:43:02.256Z,24.67
2023-04-16T22:45:29.494Z,22.73
2023-04-16T22:47:56.409Z,22.40
2023-04-16T22:50:23.594Z,23.13
2023-04-16T22:52:50.469Z,22.45
2023-04-16T22:55:17.648Z,21.65
2023-04-16T22:57:44.552Z,21.67
2023-04-16T23:00:16.011Z,21.70
2023-04-16T23:02:43.381Z,23.80
2023-04-16T23:05:11.083Z,19.67
2023-04-16T23:07:37.964Z,21.77
2023-04-16T23:10:05.600Z,21.63
2023-04-16T23:12:32.554Z,20.80
2023-04-16T23:15:00.759Z,21.00
2023-04-16T23:17:28.140Z,21.70
2023-04-16T23:19:55.548Z,18.20
2023-04-16T23:22:22.398Z,17.63
2023-04-16T23:24:49.543Z,17.85
2023-04-16T23:27:16.446Z,15.93
2023-04-16T23:29:43.620Z,18.90
2023-04-16T23:32:10.444Z,14.70
2023-04-16T23:34:37.589Z,13.35
2023-04-16T23:37:04.461Z,14.95
2023-04-16T23:39:31.674Z,11.05
2023-04-16T23:41:58.570Z,11.48
2023-04-16T23:44:25.760Z,11.77
2023-04-16T23:46:52.634Z,11.23
2023-04-16T23:49:19.858Z,11.82
2023-04-16T23:51:46.687Z,11.07
2023-04-16T23:54:14.073Z,10.82
2023-04-16T23:56:41.492Z,9.95
2023-04-16T23:59:11.140Z,10.50
